Time;durP1;ratioP1;P1;durP2;ratioP2;P2;SDS_P1;SDS_P2;PMS_P1;PMS_P2;Temp;Humidity;BMP_temperature;BMP_pressure;BME280_temperature;BME280_humidity;BME280_pressure;Samples;Min_cycle;Max_cycle;Signal;HPM_P1;HPM_P2
2022/11/06 00:00:25;;;;;;;;;3.67;3.00;;;;;13.12;100.00;101351.88;5053638;28;66181;-76
2022/11/06 00:02:50;;;;;;;;;6.67;5.00;;;;;13.08;100.00;101342.13;5042250;28;45316;-77
2022/11/06 00:08:00;;;;;;;;;5.00;4.00;;;;;13.02;100.00;101345.59;5050993;28;45298;-76
2022/11/06 00:10:25;;;;;;;;;6.00;4.00;;;;;13.00;100.00;101333.22;5056303;28;65260;-76
2022/11/06 00:12:50;;;;;;;;;7.00;4.00;;;;;12.96;100.00;101337.59;5059272;28;45451;-76
2022/11/06 00:15:16;;;;;;;;;6.00;3.00;;;;;12.95;100.00;101348.19;5064011;28;62444;-77
2022/11/06 00:17:41;;;;;;;;;6.00;4.00;;;;;12.96;100.00;101356.16;5070340;28;54034;-77
2022/11/06 00:20:08;;;;;;;;;4.67;3.00;;;;;12.94;100.00;101351.69;5051927;28;58762;-76
2022/11/06 00:22:35;;;;;;;;;4.00;4.00;;;;;12.98;100.00;101359.69;5038662;28;45416;-77
2022/11/06 00:25:00;;;;;;;;;4.33;4.33;;;;;12.97;100.00;101349.97;5063805;28;45356;-77
2022/11/06 00:27:26;;;;;;;;;6.00;3.67;;;;;12.99;100.00;101342.91;5051642;28;45555;-77
2022/11/06 00:29:51;;;;;;;;;1.00;1.00;;;;;12.96;100.00;101339.34;5045312;28;46408;-77
2022/11/06 00:32:16;;;;;;;;;5.00;5.00;;;;;12.95;100.00;101364.09;5025674;28;64886;-77
2022/11/06 00:34:42;;;;;;;;;4.33;3.00;;;;;12.99;100.00;101368.53;5051097;28;56287;-77
2022/11/06 00:37:07;;;;;;;;;3.00;3.00;;;;;12.99;100.00;101366.75;5074416;28;45326;-76
2022/11/06 00:39:32;;;;;;;;;3.00;2.67;;;;;12.96;100.00;101342.91;5069747;28;67729;-77
2022/11/06 00:41:58;;;;;;;;;4.00;2.00;;;;;12.98;100.00;101351.75;5056061;28;63328;-76
2022/11/06 00:44:23;;;;;;;;;5.33;4.00;;;;;12.94;100.00;101346.38;5067436;28;57247;-76
2022/11/06 00:46:48;;;;;;;;;6.33;4.00;;;;;12.92;100.00;101340.19;5048538;28;47507;-76
2022/11/06 00:49:14;;;;;;;;;3.33;3.00;;;;;12.83;100.00;101338.34;5064870;28;63336;-76
2022/11/06 00:51:39;;;;;;;;;4.33;3.00;;;;;12.84;100.00;101338.38;5063682;28;62668;-76
2022/11/06 00:54:09;;;;;;;;;4.33;4.00;;;;;12.82;100.00;101345.41;5063712;28;45457;-77
2022/11/06 00:56:34;;;;;;;;;4.00;2.67;;;;;12.77;100.00;101336.50;5043162;28;45356;-77
2022/11/06 00:59:02;;;;;;;;;3.67;3.00;;;;;12.75;100.00;101330.31;5059090;28;45767;-77
2022/11/06 01:01:30;;;;;;;;;8.00;3.33;;;;;12.76;100.00;101328.56;5060110;28;45276;-77
2022/11/06 01:04:04;;;;;;;;;4.33;3.00;;;;;12.73;100.00;101317.91;5025458;28;45456;-76
2022/11/06 01:06:32;;;;;;;;;4.33;3.00;;;;;12.74;100.00;101325.00;5040543;28;45504;-77
2022/11/06 01:08:58;;;;;;;;;9.00;3.33;;;;;12.76;100.00;101310.00;5046755;28;46591;-77
2022/11/06 01:11:26;;;;;;;;;3.67;3.00;;;;;12.83;100.00;101325.09;5057385;28;45534;-77
2022/11/06 01:13:54;;;;;;;;;6.00;3.00;;;;;12.84;100.00;101311.88;5046491;28;45524;-76
2022/11/06 01:16:20;;;;;;;;;3.67;2.00;;;;;12.89;100.00;101303.97;5048847;28;45705;-76
2022/11/06 01:18:46;;;;;;;;;7.00;3.00;;;;;12.90;100.00;101279.22;5070821;28;45722;-76
2022/11/06 01:21:17;;;;;;;;;4.00;3.00;;;;;12.96;100.00;101294.28;5052157;28;45285;-77
2022/11/06 01:23:43;;;;;;;;;4.67;4.00;;;;;12.96;100.00;101296.94;5042100;28;45259;-76
2022/11/06 01:26:10;;;;;;;;;4.67;3.67;;;;;12.98;100.00;101292.53;5052221;28;45424;-77
2022/11/06 01:28:36;;;;;;;;;3.00;3.00;;;;;13.00;100.00;101301.41;5047907;28;47080;-76
2022/11/06 01:31:04;;;;;;;;;3.33;3.33;;;;;13.00;100.00;101301.41;5055176;28;45425;-77
2022/11/06 01:33:29;;;;;;;;;3.00;3.00;;;;;13.04;100.00;101297.88;5039370;28;45375;-77
2022/11/06 01:35:54;;;;;;;;;6.33;3.67;;;;;13.06;100.00;101302.34;5051382;28;58009;-76
2022/11/06 01:38:20;;;;;;;;;3.33;2.00;;;;;13.07;100.00;101309.41;5066530;28;67143;-76
2022/11/06 01:40:46;;;;;;;;;3.00;3.00;;;;;13.09;100.00;101310.31;5072415;28;57155;-76
2022/11/06 01:43:24;;;;;;;;;2.00;2.00;;;;;13.09;100.00;101305.00;5045533;28;45241;-77
2022/11/06 01:45:52;;;;;;;;;4.33;3.00;;;;;13.10;100.00;101308.53;5063476;28;45607;-76
2022/11/06 01:48:24;;;;;;;;;4.00;4.00;;;;;13.12;100.00;101293.56;5033786;28;48678;-77
2022/11/06 01:50:52;;;;;;;;;5.00;3.00;;;;;13.09;100.00;101291.75;5055713;28;45582;-77
2022/11/06 01:53:17;;;;;;;;;1.67;1.67;;;;;13.07;100.00;101296.16;5062002;28;45301;-77
2022/11/06 01:55:45;;;;;;;;;2.33;2.33;;;;;13.09;100.00;101291.75;5059952;28;60395;-73
2022/11/06 01:58:14;;;;;;;;;6.00;3.00;;;;;13.09;100.00;101289.09;5059878;28;45300;-76
2022/11/06 02:00:40;;;;;;;;;2.33;2.33;;;;;13.10;100.00;101282.94;5041057;28;45430;-76
2022/11/06 02:03:05;;;;;;;;;2.33;2.00;;;;;13.11;100.00;101270.56;5037201;28;45352;-76
2022/11/06 02:05:31;;;;;;;;;2.00;2.00;;;;;13.13;100.00;101260.84;5061490;28;55899;-77
2022/11/06 02:07:58;;;;;;;;;5.00;2.00;;;;;13.11;100.00;101255.53;5072402;28;56336;-76
2022/11/06 02:10:24;;;;;;;;;5.67;3.00;;;;;13.09;100.00;101253.75;5064279;28;45403;-77
2022/11/06 02:13:01;;;;;;;;;4.33;3.00;;;;;13.07;100.00;101248.44;5077882;27;45883;-77
2022/11/06 02:15:35;;;;;;;;;5.33;3.00;;;;;13.07;100.00;101245.78;5079870;27;45420;-76
2022/11/06 02:18:21;;;;;;;;;5.00;3.00;;;;;13.07;100.00;101229.00;5072033;27;47875;-76
2022/11/06 02:21:23;;;;;;;;;2.33;2.33;;;;;13.05;100.00;101223.69;5092685;27;45452;-77
2022/11/06 02:24:07;;;;;;;;;3.67;3.67;;;;;13.03;100.00;101212.16;5088160;27;45475;-77
2022/11/06 02:26:56;;;;;;;;;3.00;3.00;;;;;13.02;100.00;101209.50;5086951;27;45382;-76
2022/11/06 02:29:28;;;;;;;;;8.33;4.00;;;;;12.97;100.00;101206.81;5069361;27;46857;-76
2022/11/06 02:31:54;;;;;;;;;4.33;3.33;;;;;13.00;100.00;101221.88;5038362;28;46305;-76
2022/11/06 02:34:23;;;;;;;;;4.67;3.00;;;;;12.98;100.00;101218.31;5063455;27;45505;-77
2022/11/06 02:37:00;;;;;;;;;7.33;3.00;;;;;12.98;100.00;101216.56;5071046;28;45410;-76
2022/11/06 02:39:28;;;;;;;;;4.00;2.00;;;;;12.99;100.00;101215.66;5071298;27;45459;-76
2022/11/06 02:41:55;;;;;;;;;5.00;4.00;;;;;12.97;100.00;101222.72;5075810;27;45425;-76
2022/11/06 02:44:23;;;;;;;;;4.67;4.00;;;;;12.96;100.00;101230.69;5089434;27;45215;-77
2022/11/06 02:46:55;;;;;;;;;4.00;3.00;;;;;12.98;100.00;101221.84;5064703;27;45506;-77
2022/11/06 02:49:28;;;;;;;;;4.33;3.67;;;;;12.99;100.00;101215.66;5076629;27;46732;-76
2022/11/06 02:52:17;;;;;;;;;3.67;3.00;;;;;13.02;100.00;101222.78;5070950;27;45491;-77
2022/11/06 02:54:48;;;;;;;;;3.00;3.00;;;;;13.01;100.00;101226.31;5082844;27;45419;-77
2022/11/06 02:57:16;;;;;;;;;3.33;3.00;;;;;13.01;100.00;101213.94;5066183;27;45388;-77
2022/11/06 02:59:50;;;;;;;;;3.67;2.00;;;;;13.04;100.00;101216.59;5057659;28;61699;-76
2022/11/06 03:02:25;;;;;;;;;4.33;2.33;;;;;13.06;100.00;101217.50;5075970;28;45474;-76
2022/11/06 03:04:56;;;;;;;;;2.67;2.67;;;;;13.09;100.00;101219.28;5063767;27;45278;-76
2022/11/06 03:07:37;;;;;;;;;3.00;3.00;;;;;13.13;100.00;101204.28;5080241;27;45257;-77
2022/11/06 03:10:03;;;;;;;;;2.67;2.00;;;;;13.14;100.00;101193.69;5045718;27;48132;-76
2022/11/06 03:12:31;;;;;;;;;3.00;3.00;;;;;13.16;100.00;101193.72;5097708;27;45430;-76
2022/11/06 03:15:27;;;;;;;;;2.00;2.00;;;;;13.15;100.00;101176.88;5054447;28;45416;-77
2022/11/06 03:18:15;;;;;;;;;3.00;3.00;;;;;13.16;100.00;101159.25;5078253;28;45338;-77
2022/11/06 03:20:51;;;;;;;;;5.33;3.00;;;;;13.14;100.00;101148.59;5094142;27;46948;-77
2022/11/06 03:23:43;;;;;;;;;3.00;2.00;;;;;13.11;100.00;101146.84;5069300;28;45308;-77
2022/11/06 03:26:17;;;;;;;;;2.00;2.00;;;;;13.10;100.00;101160.97;5062306;27;45418;-76
2022/11/06 03:29:09;;;;;;;;;3.00;3.00;;;;;13.07;100.00;101165.38;5061892;27;45478;-77
2022/11/06 03:31:39;;;;;;;;;2.00;2.00;;;;;13.02;100.00;101161.81;5056492;28;46405;-77
2022/11/06 03:34:08;;;;;;;;;2.33;2.33;;;;;13.02;100.00;101154.72;5078235;27;45422;-77
2022/11/06 03:36:36;;;;;;;;;10.00;4.00;;;;;13.03;100.00;101164.44;5097848;27;45403;-76
2022/11/06 03:39:05;;;;;;;;;3.00;3.00;;;;;12.98;100.00;101147.63;5078410;27;45379;-76
2022/11/06 03:41:44;;;;;;;;;5.33;2.00;;;;;12.99;100.00;101144.09;5065060;27;45629;-76
2022/11/06 03:44:12;;;;;;;;;3.00;2.33;;;;;12.97;100.00;101137.03;5073522;27;45373;-76
2022/11/06 03:46:42;;;;;;;;;5.00;3.33;;;;;12.95;100.00;101150.28;5092180;27;45236;-76
2022/11/06 03:49:12;;;;;;;;;4.00;4.00;;;;;12.94;100.00;101164.38;5071027;28;45598;-76
2022/11/06 03:51:57;;;;;;;;;2.67;2.67;;;;;12.92;100.00;101171.44;5070711;27;45740;-77
2022/11/06 03:54:26;;;;;;;;;7.67;3.00;;;;;12.90;100.00;101156.44;5084197;27;45302;-76
2022/11/06 03:57:17;;;;;;;;;4.67;2.67;;;;;12.88;100.00;101137.84;5064075;27;45285;-76
2022/11/06 03:59:46;;;;;;;;;2.00;2.00;;;;;12.86;100.00;101139.63;5053587;27;45590;-78
2022/11/06 04:02:13;;;;;;;;;5.00;3.00;;;;;12.82;100.00;101141.34;5063481;28;45969;-76
2022/11/06 04:04:54;;;;;;;;;4.67;3.00;;;;;12.79;100.00;101122.78;5057332;28;66534;-76
2022/11/06 04:07:22;;;;;;;;;4.00;3.00;;;;;12.80;100.00;101123.69;5048482;28;45169;-76
2022/11/06 04:15:32;;;;;;;;;5.00;2.00;;;;;12.73;100.00;101111.25;5062078;27;45637;-76
2022/11/06 04:17:57;;;;;;;;;3.00;3.00;;;;;12.70;100.00;101109.47;5073986;27;45505;-76
2022/11/06 04:23:28;;;;;;;;;5.00;3.33;;;;;12.70;100.00;101108.59;5076341;27;45473;-76
2022/11/06 04:26:36;;;;;;;;;2.00;2.00;;;;;12.72;100.00;101114.78;5092336;27;45270;-77
2022/11/06 04:29:24;;;;;;;;;5.00;4.00;;;;;12.70;100.00;101109.47;5062678;27;45412;-77
2022/11/06 04:31:59;;;;;;;;;4.00;4.00;;;;;12.68;100.00;101111.25;5057322;28;45344;-76
2022/11/06 04:34:39;;;;;;;;;4.33;4.33;;;;;12.68;100.00;101115.66;5068380;27;45917;-77
2022/11/06 04:37:14;;;;;;;;;4.00;4.00;;;;;12.67;100.00;101109.44;5098398;27;45474;-76
2022/11/06 04:39:59;;;;;;;;;9.33;4.00;;;;;12.65;100.00;101097.97;5094314;27;45395;-77
2022/11/06 04:42:46;;;;;;;;;5.67;4.00;;;;;12.64;100.00;101105.91;5094066;27;45503;-76
2022/11/06 04:45:23;;;;;;;;;4.00;4.00;;;;;12.62;100.00;101103.22;5084873;27;45588;-76
2022/11/06 04:47:51;;;;;;;;;4.67;3.00;;;;;12.62;100.00;101107.63;5068251;27;45432;-77
2022/11/06 04:50:18;;;;;;;;;3.67;3.33;;;;;12.63;100.00;101098.84;5067297;28;45355;-77
2022/11/06 04:52:44;;;;;;;;;4.00;2.00;;;;;12.67;100.00;101100.59;5056881;28;45448;-77
2022/11/06 04:55:09;;;;;;;;;6.00;6.00;;;;;12.66;100.00;101083.81;5063042;28;45777;-77
2022/11/06 04:57:34;;;;;;;;;4.00;3.00;;;;;12.69;100.00;101093.56;5060046;28;45356;-76
2022/11/06 05:00:00;;;;;;;;;3.00;3.00;;;;;12.67;100.00;101095.31;5047136;27;45454;-76
2022/11/06 05:02:25;;;;;;;;;4.00;3.00;;;;;12.69;100.00;101096.22;5080117;27;45473;-76
2022/11/06 05:04:50;;;;;;;;;7.33;3.33;;;;;12.70;100.00;101092.69;5078077;27;64246;-77
2022/11/06 05:07:16;;;;;;;;;3.33;2.00;;;;;12.70;100.00;101095.34;5078837;27;64238;-76
2022/11/06 05:09:42;;;;;;;;;2.33;2.33;;;;;12.71;100.00;101073.25;5096671;27;45469;-76
2022/11/06 05:12:08;;;;;;;;;0.67;0.67;;;;;12.70;100.00;101074.16;5065701;28;45473;-77
2022/11/06 05:14:33;;;;;;;;;6.67;2.00;;;;;12.68;100.00;101074.16;5052795;28;46742;-77
2022/11/06 05:16:59;;;;;;;;;3.67;3.00;;;;;12.68;100.00;101084.75;5033815;28;65337;-76
2022/11/06 05:19:25;;;;;;;;;3.00;2.00;;;;;12.66;100.00;101075.88;5039653;28;45461;-77
2022/11/06 05:24:34;;;;;;;;;3.00;3.00;;;;;12.71;100.00;101067.97;5057105;28;45533;-76
2022/11/06 05:26:59;;;;;;;;;2.33;2.00;;;;;12.72;100.00;101051.19;5056708;28;45360;-77
2022/11/06 05:29:25;;;;;;;;;2.00;2.00;;;;;12.73;100.00;101058.25;5056486;28;63698;-76
2022/11/06 05:31:50;;;;;;;;;4.33;2.00;;;;;12.71;100.00;101050.31;5036210;28;45342;-77
2022/11/06 05:34:15;;;;;;;;;3.33;1.00;;;;;12.70;100.00;101037.94;5054613;28;64091;-77
2022/11/06 05:36:41;;;;;;;;;5.00;3.00;;;;;12.69;100.00;101044.13;5056786;28;61704;-77
2022/11/06 05:39:06;;;;;;;;;2.00;2.00;;;;;12.70;100.00;101047.66;5021717;28;60629;-77
2022/11/06 05:41:31;;;;;;;;;7.67;2.33;;;;;12.69;100.00;101033.53;5056260;28;61212;-77
2022/11/06 05:43:57;;;;;;;;;3.00;2.00;;;;;12.70;100.00;101042.34;5038122;28;67866;-77
2022/11/06 05:46:22;;;;;;;;;3.67;2.00;;;;;12.70;100.00;101037.06;5038866;28;45318;-76
2022/11/06 05:48:48;;;;;;;;;3.00;3.00;;;;;12.71;100.00;101033.53;5039087;28;45478;-77
2022/11/06 05:51:13;;;;;;;;;3.00;1.67;;;;;12.72;100.00;101051.19;5057017;28;45292;-77
2022/11/06 05:53:38;;;;;;;;;3.33;2.00;;;;;12.73;100.00;101047.66;5022103;28;51636;-77
2022/11/06 05:56:04;;;;;;;;;3.00;2.33;;;;;12.73;100.00;101055.59;5056067;28;62157;-76
2022/11/06 05:58:30;;;;;;;;;5.00;2.00;;;;;12.70;100.00;101045.88;5038641;28;45313;-77
2022/11/06 06:00:56;;;;;;;;;4.00;3.00;;;;;12.71;100.00;101047.66;5035798;28;45702;-77
2022/11/06 06:03:22;;;;;;;;;2.00;2.00;;;;;12.70;100.00;101053.84;5034776;28;46499;-77
2022/11/06 06:05:47;;;;;;;;;2.00;2.00;;;;;12.68;100.00;101021.16;5038825;28;45326;-76
2022/11/06 06:08:13;;;;;;;;;2.33;2.00;;;;;12.69;100.00;101014.97;5038781;28;45725;-77
2022/11/06 06:10:45;;;;;;;;;3.67;2.67;;;;;12.71;100.00;101017.63;5039148;28;45442;-77
2022/11/06 06:13:12;;;;;;;;;4.00;3.00;;;;;12.70;100.00;101015.88;5049371;28;46790;-76
2022/11/06 06:15:38;;;;;;;;;1.33;1.00;;;;;12.67;100.00;101014.06;5055248;28;45603;-76
2022/11/06 06:18:04;;;;;;;;;3.00;3.00;;;;;12.64;100.00;101011.41;5050464;28;45414;-77
2022/11/06 06:20:29;;;;;;;;;1.33;1.00;;;;;12.61;100.00;101006.09;5051347;28;45570;-77
2022/11/06 06:22:56;;;;;;;;;4.33;2.00;;;;;12.59;100.00;101021.09;5051534;28;71320;-76
2022/11/06 06:25:22;;;;;;;;;1.67;1.67;;;;;12.56;100.00;101014.00;5045091;28;45500;-77
2022/11/06 06:27:48;;;;;;;;;3.00;2.00;;;;;12.58;100.00;101006.97;5060710;28;45442;-77
2022/11/06 06:30:13;;;;;;;;;4.00;2.33;;;;;12.58;100.00;101008.75;5062571;28;45384;-77
2022/11/06 06:32:38;;;;;;;;;1.00;1.00;;;;;12.54;100.00;100975.16;5059952;28;68725;-76
2022/11/06 06:35:04;;;;;;;;;4.00;2.00;;;;;12.53;100.00;100976.94;5051709;28;61000;-76
2022/11/06 06:37:30;;;;;;;;;5.00;3.00;;;;;12.53;100.00;100965.44;5057581;28;45170;-76
2022/11/06 06:39:55;;;;;;;;;2.00;2.00;;;;;12.52;100.00;100964.56;5058836;28;45386;-76
2022/11/06 06:42:20;;;;;;;;;2.00;2.00;;;;;12.52;100.00;100967.22;5056849;28;65478;-76
2022/11/06 06:44:46;;;;;;;;;4.00;3.67;;;;;12.52;100.00;100969.88;5052962;28;61857;-76
2022/11/06 06:47:15;;;;;;;;;5.00;3.00;;;;;12.52;100.00;100959.28;5067174;28;45275;-77
2022/11/06 06:49:41;;;;;;;;;2.00;2.00;;;;;12.53;100.00;100966.34;5065996;28;45487;-77
2022/11/06 06:52:06;;;;;;;;;2.00;2.00;;;;;12.52;100.00;100959.28;5067454;28;45969;-77
2022/11/06 06:54:32;;;;;;;;;5.67;3.67;;;;;12.54;100.00;100951.31;5059838;28;45367;-77
2022/11/06 06:56:58;;;;;;;;;3.00;3.00;;;;;12.53;100.00;100947.78;5062905;28;62026;-78
2022/11/06 06:59:24;;;;;;;;;4.33;2.33;;;;;12.55;100.00;100945.13;5062857;28;45378;-76
2022/11/06 07:01:49;;;;;;;;;7.00;2.00;;;;;12.54;100.00;100946.03;5061355;28;46447;-76
2022/11/06 07:04:14;;;;;;;;;2.00;2.00;;;;;12.55;100.00;100948.66;5040444;28;65518;-77
2022/11/06 07:06:40;;;;;;;;;4.33;2.67;;;;;12.55;100.00;100947.78;5057557;28;61366;-76
2022/11/06 07:09:05;;;;;;;;;3.00;3.00;;;;;12.54;100.00;100944.25;5074550;28;61594;-77
2022/11/06 07:11:31;;;;;;;;;4.00;4.00;;;;;12.55;100.00;100953.09;5072324;27;45764;-78
2022/11/06 07:13:56;;;;;;;;;3.00;2.00;;;;;12.55;100.00;100953.09;5090553;27;45241;-77
2022/11/06 07:16:22;;;;;;;;;2.00;2.00;;;;;12.55;100.00;100959.28;5086415;27;45224;-77
2022/11/06 07:18:47;;;;;;;;;5.33;3.33;;;;;12.57;100.00;100954.88;5058027;27;45250;-77
2022/11/06 07:21:13;;;;;;;;;3.00;3.00;;;;;12.59;100.00;100949.59;5077481;27;46921;-76
2022/11/06 07:23:38;;;;;;;;;2.00;2.00;;;;;12.62;100.00;100943.41;5078200;27;45379;-76
2022/11/06 07:26:04;;;;;;;;;6.67;3.00;;;;;12.62;100.00;100946.03;5060889;27;45401;-76
2022/11/06 07:28:30;;;;;;;;;3.00;3.00;;;;;12.62;100.00;100932.81;5068096;28;45377;-77
2022/11/06 07:30:59;;;;;;;;;3.00;3.00;;;;;12.63;100.00;100929.31;5084995;27;45674;-77
2022/11/06 07:33:25;;;;;;;;;4.00;2.33;;;;;12.62;100.00;100930.16;5082914;27;45456;-75
2022/11/06 07:35:51;;;;;;;;;5.00;3.00;;;;;12.62;100.00;100936.34;5061045;28;45461;-77
2022/11/06 07:38:16;;;;;;;;;4.00;3.00;;;;;12.63;100.00;100931.94;5073765;28;45374;-77
2022/11/06 07:40:41;;;;;;;;;2.33;2.00;;;;;12.63;100.00;100926.66;5090473;27;45377;-76
2022/11/06 07:43:08;;;;;;;;;4.00;3.00;;;;;12.63;100.00;100926.66;5081166;27;63942;-77
2022/11/06 07:45:34;;;;;;;;;2.00;2.00;;;;;12.62;100.00;100917.78;5085885;27;45218;-77
2022/11/06 07:48:00;;;;;;;;;2.00;2.00;;;;;12.64;100.00;100931.06;5069292;27;45466;-77
2022/11/06 07:50:26;;;;;;;;;2.00;2.00;;;;;12.66;100.00;100938.13;5084486;27;46752;-77
2022/11/06 07:52:51;;;;;;;;;4.33;2.67;;;;;12.66;100.00;100927.53;5067446;28;45336;-76
2022/11/06 07:55:16;;;;;;;;;3.00;3.00;;;;;12.66;100.00;100929.28;5084075;27;61694;-77
2022/11/06 07:57:42;;;;;;;;;2.00;2.00;;;;;12.66;100.00;100927.53;5064252;28;60055;-76
2022/11/06 08:00:08;;;;;;;;;2.00;2.00;;;;;12.68;100.00;100928.44;5063477;27;46544;-76
2022/11/06 08:02:33;;;;;;;;;3.33;3.33;;;;;12.67;100.00;100921.34;5078863;28;45443;-76
2022/11/06 08:04:59;;;;;;;;;5.00;4.00;;;;;12.67;100.00;100920.47;5075145;27;63913;-77
2022/11/06 08:07:24;;;;;;;;;2.33;2.00;;;;;12.68;100.00;100907.25;5079110;28;45149;-77
2022/11/06 08:09:50;;;;;;;;;3.00;3.00;;;;;12.73;100.00;100913.44;5091035;27;59986;-77
2022/11/06 08:12:15;;;;;;;;;4.00;3.00;;;;;12.74;100.00;100915.22;5066081;28;45481;-76
2022/11/06 08:14:40;;;;;;;;;4.00;3.00;;;;;12.74;100.00;100912.56;5039737;28;58275;-76
2022/11/06 08:17:06;;;;;;;;;4.33;3.33;;;;;12.78;100.00;100905.47;5023108;28;45671;-76
2022/11/06 08:19:32;;;;;;;;;2.00;2.00;;;;;12.79;100.00;100896.69;5023532;28;48293;-76
2022/11/06 08:21:57;;;;;;;;;4.33;3.00;;;;;12.75;100.00;100893.13;5057855;28;45415;-76
2022/11/06 08:24:22;;;;;;;;;2.00;2.00;;;;;12.76;100.00;100894.00;5058607;28;45294;-76
2022/11/06 08:26:48;;;;;;;;;8.00;2.00;;;;;12.79;100.00;100896.69;5057811;28;52210;-77
2022/11/06 08:29:14;;;;;;;;;4.00;3.00;;;;;12.78;100.00;100900.19;5039993;28;46612;-77
2022/11/06 08:31:39;;;;;;;;;5.00;3.00;;;;;12.79;100.00;100896.69;5039999;28;45360;-76
2022/11/06 08:34:05;;;;;;;;;1.33;1.33;;;;;12.79;100.00;100899.34;5057580;28;57310;-76
2022/11/06 08:36:30;;;;;;;;;2.00;2.00;;;;;12.76;100.00;100897.53;5040041;28;45549;-76
2022/11/06 08:38:56;;;;;;;;;5.00;3.00;;;;;12.80;100.00;100903.75;5040309;28;46646;-75
2022/11/06 08:41:21;;;;;;;;;3.00;0.67;;;;;12.77;100.00;100904.59;5057050;28;65471;-76
2022/11/06 08:43:50;;;;;;;;;4.00;2.67;;;;;12.78;100.00;100909.03;5039332;28;61953;-76
2022/11/06 08:46:16;;;;;;;;;3.67;3.00;;;;;12.77;100.00;100901.06;5056761;28;45555;-76
2022/11/06 08:48:41;;;;;;;;;3.00;3.00;;;;;12.76;100.00;100900.19;5039651;28;45846;-76
2022/11/06 08:51:06;;;;;;;;;4.00;3.00;;;;;12.75;100.00;100893.13;5057442;28;58797;-77
2022/11/06 08:53:32;;;;;;;;;4.33;2.67;;;;;12.74;100.00;100898.44;5039692;28;45445;-76
2022/11/06 08:55:58;;;;;;;;;3.00;3.00;;;;;12.72;100.00;100914.31;5036881;28;45455;-77
2022/11/06 08:58:23;;;;;;;;;2.67;2.67;;;;;12.71;100.00;100916.94;5054713;28;46559;-76
2022/11/06 09:00:49;;;;;;;;;2.00;2.00;;;;;12.69;100.00;100919.59;5057135;28;45273;-77
2022/11/06 09:03:16;;;;;;;;;5.33;4.33;;;;;12.72;100.00;100914.31;5055305;28;59067;-76
2022/11/06 09:05:42;;;;;;;;;2.00;2.00;;;;;12.73;100.00;100907.22;5056892;28;45352;-76
2022/11/06 09:08:08;;;;;;;;;2.33;2.33;;;;;12.72;100.00;100902.81;5057004;28;45804;-76
2022/11/06 09:13:10;;;;;;;;;6.00;4.67;;;;;12.76;100.00;100894.00;5101656;23;45850;-75
2022/11/06 09:15:36;;;;;;;;;4.00;3.00;;;;;12.76;100.00;100886.06;5092340;27;45529;-76
2022/11/06 09:18:01;;;;;;;;;3.33;3.33;;;;;12.77;100.00;100887.81;5097577;27;46677;-75
2022/11/06 09:20:26;;;;;;;;;2.00;2.00;;;;;12.74;100.00;100869.28;5097201;27;62998;-76
2022/11/06 09:22:52;;;;;;;;;3.33;3.33;;;;;12.76;100.00;100864.88;5079074;27;65953;-76
2022/11/06 09:25:18;;;;;;;;;3.00;3.00;;;;;12.76;100.00;100855.16;5096856;27;45582;-76
2022/11/06 09:27:45;;;;;;;;;2.00;2.00;;;;;12.76;100.00;100852.50;5097951;27;45738;-75
2022/11/06 09:30:13;;;;;;;;;5.67;2.00;;;;;12.74;100.00;100837.50;5098052;27;45334;-76
2022/11/06 09:32:44;;;;;;;;;7.00;4.67;;;;;12.75;100.00;100837.50;5078763;27;45503;-77
2022/11/06 09:35:09;;;;;;;;;9.67;3.00;;;;;12.75;100.00;100832.19;5076746;28;45413;-76
2022/11/06 09:37:35;;;;;;;;;3.67;2.33;;;;;12.76;100.00;100826.00;5067578;28;60960;-77
2022/11/06 09:40:00;;;;;;;;;3.67;3.00;;;;;12.76;100.00;100825.13;5094397;27;63862;-76
2022/11/06 09:42:33;;;;;;;;;3.67;3.67;;;;;12.78;100.00;100836.59;5097128;27;60836;-76
2022/11/06 09:45:12;;;;;;;;;2.67;2.67;;;;;12.78;100.00;100837.50;5079838;27;45328;-76
2022/11/06 09:47:40;;;;;;;;;5.00;3.00;;;;;12.78;100.00;100824.25;5079451;27;45628;-75
2022/11/06 09:50:13;;;;;;;;;4.00;3.00;;;;;12.77;100.00;100819.81;5088354;27;45405;-77
2022/11/06 09:52:43;;;;;;;;;4.00;2.00;;;;;12.76;100.00;100819.81;5079647;27;45327;-75
2022/11/06 09:55:17;;;;;;;;;2.33;2.33;;;;;12.78;100.00;100820.69;5085699;27;45411;-76
2022/11/06 09:57:55;;;;;;;;;5.00;3.33;;;;;12.77;100.00;100814.50;5079358;27;46778;-76
2022/11/06 10:00:21;;;;;;;;;3.67;3.00;;;;;12.75;100.00;100810.13;5083690;27;45426;-76
2022/11/06 10:02:49;;;;;;;;;5.67;5.00;;;;;12.71;100.00;100800.38;5079675;27;45375;-76
2022/11/06 10:05:23;;;;;;;;;5.00;4.00;;;;;12.69;100.00;100797.75;5078897;27;45524;-75
2022/11/06 10:07:51;;;;;;;;;4.00;2.33;;;;;12.67;100.00;100801.25;5086602;27;45425;-75
2022/11/06 10:10:18;;;;;;;;;3.67;3.00;;;;;12.69;100.00;100807.47;5079025;27;45408;-77
2022/11/06 10:13:03;;;;;;;;;3.00;3.00;;;;;12.67;100.00;100798.59;5075927;27;45205;-77
2022/11/06 10:16:08;;;;;;;;;5.33;4.00;;;;;12.69;100.00;100802.16;5058021;28;45481;-76
2022/11/06 10:19:07;;;;;;;;;5.67;4.00;;;;;12.70;100.00;100798.63;5064307;27;48415;-76
2022/11/06 10:21:35;;;;;;;;;3.00;3.00;;;;;12.72;100.00;100799.50;5078800;27;45423;-76
2022/11/06 10:24:10;;;;;;;;;3.00;3.00;;;;;12.71;100.00;100798.63;5084766;27;45485;-77
2022/11/06 10:26:40;;;;;;;;;4.67;4.00;;;;;12.71;100.00;100801.25;5079096;27;45453;-76
2022/11/06 10:29:28;;;;;;;;;5.00;2.00;;;;;12.70;100.00;100806.56;5069047;27;48244;-77
2022/11/06 10:32:32;;;;;;;;;4.67;4.67;;;;;12.70;100.00;100810.09;5081475;27;45499;-76
2022/11/06 10:35:19;;;;;;;;;5.00;3.00;;;;;12.71;100.00;100810.97;5067879;27;45380;-76
2022/11/06 10:37:51;;;;;;;;;5.67;5.00;;;;;12.70;100.00;100809.22;5078754;27;45277;-77
2022/11/06 10:40:21;;;;;;;;;4.33;4.33;;;;;12.68;100.00;100806.56;5078728;27;46929;-76
2022/11/06 10:42:54;;;;;;;;;7.33;3.00;;;;;12.66;100.00;100804.78;5075807;27;45568;-76
2022/11/06 10:45:20;;;;;;;;;4.33;4.00;;;;;12.68;100.00;100803.94;5079021;27;45325;-76
2022/11/06 10:47:53;;;;;;;;;3.33;3.33;;;;;12.65;100.00;100777.41;5097190;27;45262;-76
2022/11/06 10:50:18;;;;;;;;;3.00;3.00;;;;;12.64;100.00;100782.72;5072048;27;45482;-76
2022/11/06 10:52:49;;;;;;;;;4.00;4.00;;;;;12.63;100.00;100788.91;5078808;27;45375;-77
2022/11/06 10:55:38;;;;;;;;;5.67;3.33;;;;;12.59;100.00;100804.78;5078382;27;45525;-77
2022/11/06 10:58:17;;;;;;;;;6.33;4.00;;;;;12.55;100.00;100780.94;5078657;27;45380;-76
2022/11/06 11:00:42;;;;;;;;;6.00;5.67;;;;;12.54;100.00;100781.81;5078333;27;45784;-76
2022/11/06 11:03:29;;;;;;;;;4.33;4.00;;;;;12.56;100.00;100765.03;5078479;27;45326;-76
2022/11/06 11:05:55;;;;;;;;;6.33;4.00;;;;;12.58;100.00;100770.34;5078622;27;45494;-76
2022/11/06 11:08:29;;;;;;;;;6.00;4.00;;;;;12.56;100.00;100759.72;5076951;27;45347;-75
2022/11/06 11:11:25;;;;;;;;;6.00;6.00;;;;;12.54;100.00;100766.81;5096661;27;46007;-76
2022/11/06 11:13:56;;;;;;;;;10.67;5.00;;;;;12.54;100.00;100760.63;5068109;27;45448;-76
2022/11/06 11:16:24;;;;;;;;;5.67;3.00;;;;;12.51;100.00;100750.88;5078347;27;45339;-77
2022/11/06 11:18:50;;;;;;;;;4.33;4.00;;;;;12.54;100.00;100744.72;5096548;27;45576;-77
2022/11/06 11:21:23;;;;;;;;;3.00;3.00;;;;;12.53;100.00;100743.84;5078079;27;46827;-77
2022/11/06 11:24:10;;;;;;;;;3.67;3.67;;;;;12.53;100.00;100720.00;5079196;27;46183;-76
2022/11/06 11:26:44;;;;;;;;;9.67;4.00;;;;;12.52;100.00;100720.03;5100129;27;45220;-76
2022/11/06 11:29:12;;;;;;;;;4.00;4.00;;;;;12.52;100.00;100720.91;5098746;27;45313;-76
2022/11/06 11:31:38;;;;;;;;;4.67;4.33;;;;;12.53;100.00;100719.13;5100191;27;45845;-77
2022/11/06 11:34:06;;;;;;;;;6.00;4.00;;;;;12.53;100.00;100727.97;5098980;27;63049;-76
2022/11/06 11:36:57;;;;;;;;;2.00;2.00;;;;;12.55;100.00;100728.84;5061800;28;45395;-76
2022/11/06 11:39:29;;;;;;;;;5.33;4.00;;;;;12.53;100.00;100722.66;5078310;27;45383;-76
2022/11/06 11:42:15;;;;;;;;;5.00;4.00;;;;;12.57;100.00;100720.91;5081421;27;45786;-76
2022/11/06 11:44:41;;;;;;;;;7.00;4.00;;;;;12.58;100.00;100705.00;5081289;27;45300;-76